CSC8744 ZGGG-ZUCK
Flight info
| Callsign | CSC8744 |
|---|---|
| Flight time | N/A |
| Altitude | FL321 |
| Route | AGVIL9 AGVIL W24 OSNOV G586 QP B330 ELKAL W179 SUMUN W3 ASIPO W678 SEGDA SEGD1J |
| Aircraft | A321/M-SDE3FGHIRWY/LB1 |
Departure
| Time | 2026-05-08 06:06 |
|---|---|
| Airport | Guangzhou Baiyun International Airport (ZGGG) |
Arrival
| Time | N/A |
|---|---|
| Airport | Chongqing Jiangbei International Airport (ZUCK) |
| Time | Latitude | Longitude | Altitude | Speed | Heading |
|---|---|---|---|---|---|
| 2026-05-08 05:31 | 23.38972 | 113.29208 | 59 ft | 0 kts | 66° |
| 2026-05-08 05:48 | 23.38971 | 113.29206 | 58 ft | 2 kts | 66° |
| 2026-05-08 05:49 | 23.38960 | 113.29180 | 68 ft | 4 kts | 66° |
| 2026-05-08 05:49 | 23.38949 | 113.29153 | 46 ft | 4 kts | 66° |
| 2026-05-08 05:49 | 23.38938 | 113.29126 | 51 ft | 4 kts | 66° |
| 2026-05-08 05:49 | 23.38927 | 113.29099 | 51 ft | 3 kts | 66° |
| 2026-05-08 05:50 | 23.38918 | 113.29078 | 53 ft | 4 kts | 56° |
| 2026-05-08 05:50 | 23.38900 | 113.29057 | 55 ft | 4 kts | 32° |
| 2026-05-08 05:50 | 23.38878 | 113.29046 | 55 ft | 1 kts | 14° |
| 2026-05-08 05:50 | 23.38873 | 113.29045 | 52 ft | 0 kts | 14° |
| 2026-05-08 05:53 | 23.38874 | 113.29045 | 52 ft | 1 kts | 14° |
| 2026-05-08 05:53 | 23.38883 | 113.29047 | 58 ft | 2 kts | 14° |
| 2026-05-08 05:53 | 23.38904 | 113.29053 | 54 ft | 4 kts | 14° |
| 2026-05-08 05:53 | 23.38939 | 113.29062 | 53 ft | 6 kts | 14° |
| 2026-05-08 05:54 | 23.38986 | 113.29075 | 54 ft | 8 kts | 14° |
| 2026-05-08 05:54 | 23.39046 | 113.29092 | 58 ft | 10 kts | 14° |
| 2026-05-08 05:54 | 23.39117 | 113.29111 | 55 ft | 11 kts | 14° |
| 2026-05-08 05:54 | 23.39200 | 113.29133 | 51 ft | 13 kts | 14° |
| 2026-05-08 05:55 | 23.39294 | 113.29158 | 55 ft | 15 kts | 14° |
| 2026-05-08 05:55 | 23.39396 | 113.29186 | 52 ft | 15 kts | 14° |
| 2026-05-08 05:55 | 23.39484 | 113.29210 | 50 ft | 11 kts | 14° |
| 2026-05-08 05:55 | 23.39527 | 113.29220 | 55 ft | 3 kts | 4° |
| 2026-05-08 05:56 | 23.39536 | 113.29217 | 54 ft | 0 kts | 342° |
| 2026-05-08 05:56 | 23.39540 | 113.29215 | 54 ft | 1 kts | 338° |
| 2026-05-08 05:56 | 23.39547 | 113.29210 | 56 ft | 1 kts | 322° |
| 2026-05-08 05:56 | 23.39555 | 113.29190 | 54 ft | 5 kts | 283° |
| 2026-05-08 05:57 | 23.39563 | 113.29142 | 56 ft | 8 kts | 283° |
| 2026-05-08 05:57 | 23.39587 | 113.29079 | 53 ft | 9 kts | 316° |
| 2026-05-08 05:57 | 23.39650 | 113.29074 | 55 ft | 10 kts | 13° |
| 2026-05-08 05:57 | 23.39716 | 113.29091 | 53 ft | 10 kts | 13° |
| 2026-05-08 05:58 | 23.39785 | 113.29110 | 52 ft | 10 kts | 14° |
| 2026-05-08 05:58 | 23.39857 | 113.29129 | 54 ft | 11 kts | 14° |
| 2026-05-08 05:58 | 23.39931 | 113.29150 | 56 ft | 11 kts | 14° |
| 2026-05-08 05:58 | 23.40009 | 113.29171 | 54 ft | 12 kts | 14° |
| 2026-05-08 05:59 | 23.40089 | 113.29192 | 53 ft | 12 kts | 14° |
| 2026-05-08 05:59 | 23.40171 | 113.29214 | 56 ft | 12 kts | 14° |
| 2026-05-08 05:59 | 23.40256 | 113.29237 | 53 ft | 13 kts | 14° |
| 2026-05-08 05:59 | 23.40346 | 113.29261 | 52 ft | 14 kts | 14° |
| 2026-05-08 06:00 | 23.40438 | 113.29286 | 52 ft | 14 kts | 14° |
| 2026-05-08 06:00 | 23.40532 | 113.29312 | 55 ft | 14 kts | 14° |
| 2026-05-08 06:00 | 23.40631 | 113.29338 | 55 ft | 15 kts | 14° |
| 2026-05-08 06:00 | 23.40718 | 113.29362 | 55 ft | 11 kts | 14° |
| 2026-05-08 06:01 | 23.40778 | 113.29372 | 54 ft | 6 kts | 346° |
| 2026-05-08 06:01 | 23.40800 | 113.29349 | 52 ft | 3 kts | 301° |
| 2026-05-08 06:01 | 23.40804 | 113.29340 | 53 ft | 0 kts | 292° |
| 2026-05-08 06:01 | 23.40806 | 113.29334 | 52 ft | 1 kts | 288° |
| 2026-05-08 06:02 | 23.40809 | 113.29319 | 55 ft | 2 kts | 284° |
| 2026-05-08 06:02 | 23.40811 | 113.29309 | 54 ft | 0 kts | 284° |
| 2026-05-08 06:04 | 23.40821 | 113.29268 | 54 ft | 12 kts | 284° |
| 2026-05-08 06:05 | 23.40807 | 113.29196 | 58 ft | 8 kts | 217° |
| 2026-05-08 06:05 | 23.40785 | 113.29187 | 53 ft | 0 kts | 194° |
| 2026-05-08 06:05 | 23.40784 | 113.29187 | 53 ft | 2 kts | 194° |
| 2026-05-08 06:05 | 23.40615 | 113.29141 | 55 ft | 58 kts | 194° |
| 2026-05-08 06:06 | 23.40017 | 113.28980 | 55 ft | 118 kts | 194° |
| 2026-05-08 06:06 | 23.39051 | 113.28721 | 56 ft | 167 kts | 193° |
| 2026-05-08 06:06 | 23.37877 | 113.28412 | 576 ft | 171 kts | 192° |
| 2026-05-08 06:06 | 23.36714 | 113.28103 | 1138 ft | 173 kts | 193° |
| 2026-05-08 06:07 | 23.35505 | 113.27787 | 1508 ft | 188 kts | 194° |
| 2026-05-08 06:07 | 23.34238 | 113.27230 | 1633 ft | 207 kts | 216° |
| 2026-05-08 06:07 | 23.33212 | 113.26060 | 1777 ft | 224 kts | 243° |
| 2026-05-08 06:07 | 23.32446 | 113.24526 | 1907 ft | 241 kts | 245° |
| 2026-05-08 06:08 | 23.31791 | 113.22797 | 2142 ft | 252 kts | 264° |
| 2026-05-08 06:08 | 23.31799 | 113.20920 | 2770 ft | 249 kts | 285° |
| 2026-05-08 06:08 | 23.32211 | 113.19083 | 3370 ft | 252 kts | 286° |
| 2026-05-08 06:08 | 23.32637 | 113.17227 | 3965 ft | 254 kts | 285° |
| 2026-05-08 06:09 | 23.33065 | 113.15367 | 4630 ft | 255 kts | 285° |
| 2026-05-08 06:09 | 23.33494 | 113.13495 | 5242 ft | 255 kts | 285° |
| 2026-05-08 06:09 | 23.33923 | 113.11628 | 5916 ft | 254 kts | 284° |
| 2026-05-08 06:09 | 23.34545 | 113.09848 | 6530 ft | 255 kts | 303° |
| 2026-05-08 06:10 | 23.35820 | 113.08524 | 7072 ft | 260 kts | 329° |
| 2026-05-08 06:10 | 23.37610 | 113.07963 | 7311 ft | 279 kts | 357° |
| 2026-05-08 06:10 | 23.39579 | 113.07968 | 7756 ft | 286 kts | 359° |
| 2026-05-08 06:10 | 23.41577 | 113.07979 | 8310 ft | 289 kts | 358° |
| 2026-05-08 06:11 | 23.43597 | 113.07985 | 8922 ft | 292 kts | 358° |
| 2026-05-08 06:11 | 23.45632 | 113.07985 | 9563 ft | 294 kts | 357° |
| 2026-05-08 06:11 | 23.47686 | 113.07982 | 10168 ft | 298 kts | 357° |
| 2026-05-08 06:11 | 23.49819 | 113.07973 | 10312 ft | 317 kts | 357° |
| 2026-05-08 06:12 | 23.52077 | 113.07961 | 10446 ft | 334 kts | 357° |
| 2026-05-08 06:12 | 23.54442 | 113.07943 | 10560 ft | 350 kts | 357° |
| 2026-05-08 06:12 | 23.56939 | 113.07920 | 10682 ft | 366 kts | 357° |
| 2026-05-08 06:12 | 23.59526 | 113.07897 | 10800 ft | 380 kts | 357° |
| 2026-05-08 06:13 | 23.62204 | 113.07874 | 10999 ft | 391 kts | 358° |
| 2026-05-08 06:13 | 23.64933 | 113.07853 | 11391 ft | 395 kts | 358° |
| 2026-05-08 06:13 | 23.67675 | 113.07814 | 11836 ft | 397 kts | 355° |
| 2026-05-08 06:13 | 23.70405 | 113.07388 | 12276 ft | 397 kts | 344° |
| 2026-05-08 06:14 | 23.73009 | 113.06423 | 12734 ft | 397 kts | 334° |
| 2026-05-08 06:14 | 23.75535 | 113.05174 | 13190 ft | 400 kts | 334° |
| 2026-05-08 06:14 | 23.78066 | 113.03924 | 13684 ft | 402 kts | 334° |
| 2026-05-08 06:14 | 23.80619 | 113.02668 | 14096 ft | 405 kts | 334° |
| 2026-05-08 06:15 | 23.83199 | 113.01399 | 14504 ft | 408 kts | 334° |
| 2026-05-08 06:15 | 23.85783 | 113.00127 | 14943 ft | 409 kts | 333° |
| 2026-05-08 06:15 | 23.88382 | 112.98847 | 15380 ft | 411 kts | 333° |
| 2026-05-08 06:15 | 23.90989 | 112.97559 | 15799 ft | 413 kts | 333° |
| 2026-05-08 06:16 | 23.93611 | 112.96264 | 16197 ft | 415 kts | 333° |
| 2026-05-08 06:16 | 23.96245 | 112.94964 | 16596 ft | 418 kts | 333° |
| 2026-05-08 06:16 | 23.98895 | 112.93653 | 16986 ft | 420 kts | 333° |
| 2026-05-08 06:16 | 24.01557 | 112.92335 | 17360 ft | 422 kts | 333° |
| 2026-05-08 06:17 | 24.06924 | 112.89683 | 18045 ft | 426 kts | 333° |
| 2026-05-08 06:17 | 24.09626 | 112.88346 | 18378 ft | 428 kts | 333° |
| 2026-05-08 06:17 | 24.12333 | 112.87004 | 18671 ft | 430 kts | 333° |
| 2026-05-08 06:18 | 24.15066 | 112.85671 | 18970 ft | 432 kts | 335° |
| 2026-05-08 06:18 | 24.17926 | 112.84645 | 19277 ft | 435 kts | 340° |
| 2026-05-08 06:18 | 24.20828 | 112.83683 | 19558 ft | 437 kts | 340° |
| 2026-05-08 06:18 | 24.23736 | 112.82722 | 19834 ft | 439 kts | 340° |
| 2026-05-08 06:19 | 24.26657 | 112.81757 | 20130 ft | 440 kts | 340° |
| 2026-05-08 06:19 | 24.29594 | 112.80784 | 20395 ft | 442 kts | 340° |
| 2026-05-08 06:19 | 24.32532 | 112.79808 | 20661 ft | 443 kts | 340° |
| 2026-05-08 06:19 | 24.35477 | 112.78824 | 20932 ft | 444 kts | 340° |
| 2026-05-08 06:20 | 24.38435 | 112.77833 | 21205 ft | 446 kts | 340° |
| 2026-05-08 06:20 | 24.41381 | 112.76787 | 21469 ft | 445 kts | 335° |
| 2026-05-08 06:20 | 24.44089 | 112.75202 | 21713 ft | 442 kts | 322° |
| 2026-05-08 06:20 | 24.46394 | 112.73005 | 21969 ft | 440 kts | 310° |
| 2026-05-08 06:21 | 24.48196 | 112.70315 | 22239 ft | 438 kts | 298° |
| 2026-05-08 06:21 | 24.49415 | 112.67266 | 22487 ft | 438 kts | 286° |
| 2026-05-08 06:21 | 24.50012 | 112.63995 | 22742 ft | 439 kts | 276° |
| 2026-05-08 06:21 | 24.50340 | 112.60663 | 22977 ft | 441 kts | 276° |
| 2026-05-08 06:22 | 24.50670 | 112.57317 | 23200 ft | 443 kts | 276° |
| 2026-05-08 06:22 | 24.51000 | 112.53960 | 23453 ft | 444 kts | 276° |
| 2026-05-08 06:22 | 24.51329 | 112.50591 | 23677 ft | 445 kts | 276° |
| 2026-05-08 06:22 | 24.51654 | 112.47209 | 23877 ft | 447 kts | 276° |
| 2026-05-08 06:23 | 24.51978 | 112.43821 | 24111 ft | 447 kts | 276° |
| 2026-05-08 06:23 | 24.52303 | 112.40440 | 24369 ft | 447 kts | 276° |
| 2026-05-08 06:23 | 24.52629 | 112.37048 | 24598 ft | 448 kts | 276° |
| 2026-05-08 06:23 | 24.52956 | 112.33653 | 24824 ft | 448 kts | 276° |
| 2026-05-08 06:24 | 24.53283 | 112.30251 | 25040 ft | 449 kts | 276° |
| 2026-05-08 06:24 | 24.53609 | 112.26844 | 25238 ft | 450 kts | 276° |
| 2026-05-08 06:24 | 24.53935 | 112.23425 | 25456 ft | 451 kts | 276° |
| 2026-05-08 06:24 | 24.54258 | 112.20009 | 25773 ft | 450 kts | 276° |
| 2026-05-08 06:25 | 24.54582 | 112.16610 | 26063 ft | 448 kts | 276° |
| 2026-05-08 06:25 | 24.54905 | 112.13220 | 26399 ft | 446 kts | 276° |
| 2026-05-08 06:25 | 24.55225 | 112.09848 | 26752 ft | 444 kts | 276° |
| 2026-05-08 06:25 | 24.55542 | 112.06488 | 27078 ft | 442 kts | 276° |
| 2026-05-08 06:26 | 24.55855 | 112.03142 | 27420 ft | 440 kts | 276° |
| 2026-05-08 06:26 | 24.56164 | 111.99813 | 27779 ft | 438 kts | 276° |
| 2026-05-08 06:26 | 24.56472 | 111.96501 | 28094 ft | 437 kts | 276° |
| 2026-05-08 06:26 | 24.56778 | 111.93200 | 28393 ft | 435 kts | 276° |
| 2026-05-08 06:27 | 24.57088 | 111.89900 | 28722 ft | 434 kts | 275° |
| 2026-05-08 06:27 | 24.57396 | 111.86615 | 29059 ft | 432 kts | 275° |
| 2026-05-08 06:27 | 24.57699 | 111.83350 | 29389 ft | 430 kts | 275° |
| 2026-05-08 06:27 | 24.58000 | 111.80088 | 29718 ft | 429 kts | 275° |
| 2026-05-08 06:28 | 24.58297 | 111.76853 | 30025 ft | 427 kts | 275° |
| 2026-05-08 06:28 | 24.58595 | 111.73615 | 30303 ft | 426 kts | 275° |
| 2026-05-08 06:28 | 24.58890 | 111.70391 | 30548 ft | 424 kts | 275° |
| 2026-05-08 06:28 | 24.59184 | 111.67169 | 30788 ft | 424 kts | 275° |
| 2026-05-08 06:29 | 24.59478 | 111.63960 | 31029 ft | 423 kts | 275° |
| 2026-05-08 06:29 | 24.59773 | 111.60751 | 31265 ft | 422 kts | 275° |
| 2026-05-08 06:29 | 24.60064 | 111.57555 | 31540 ft | 421 kts | 275° |
| 2026-05-08 06:29 | 24.60353 | 111.54364 | 31764 ft | 421 kts | 275° |
| 2026-05-08 06:30 | 24.60642 | 111.51179 | 31984 ft | 420 kts | 275° |
| 2026-05-08 06:30 | 24.60931 | 111.47982 | 32117 ft | 421 kts | 275° |
| 2026-05-08 06:30 | 24.61510 | 111.41575 | 32146 ft | 423 kts | 275° |
| 2026-05-08 06:31 | 24.62082 | 111.35161 | 32151 ft | 423 kts | 275° |
| 2026-05-08 06:31 | 24.62643 | 111.28742 | 32149 ft | 423 kts | 275° |
| 2026-05-08 06:32 | 24.63205 | 111.22321 | 32149 ft | 423 kts | 275° |
| 2026-05-08 06:32 | 24.63759 | 111.15897 | 32149 ft | 423 kts | 275° |
| 2026-05-08 06:33 | 24.64313 | 111.09476 | 32153 ft | 423 kts | 275° |
| 2026-05-08 06:33 | 24.64862 | 111.03052 | 32157 ft | 423 kts | 275° |
| 2026-05-08 06:34 | 24.65407 | 110.96625 | 32156 ft | 423 kts | 275° |
| 2026-05-08 06:34 | 24.65948 | 110.90197 | 32153 ft | 423 kts | 275° |
| 2026-05-08 06:35 | 24.66490 | 110.83765 | 32152 ft | 423 kts | 276° |
| 2026-05-08 06:35 | 24.68176 | 110.77611 | 32156 ft | 426 kts | 296° |
| 2026-05-08 06:36 | 24.71895 | 110.72517 | 32149 ft | 434 kts | 312° |
| 2026-05-08 06:36 | 24.76256 | 110.67948 | 32130 ft | 434 kts | 312° |
| 2026-05-08 06:37 | 24.80608 | 110.63359 | 32164 ft | 434 kts | 311° |
| 2026-05-08 06:37 | 24.84956 | 110.58767 | 32156 ft | 434 kts | 311° |
| 2026-05-08 06:38 | 24.89302 | 110.54186 | 32153 ft | 434 kts | 311° |
| 2026-05-08 06:38 | 24.93648 | 110.49594 | 32160 ft | 433 kts | 311° |
| 2026-05-08 06:39 | 24.97988 | 110.45000 | 32155 ft | 434 kts | 311° |
| 2026-05-08 06:39 | 25.02330 | 110.40402 | 32158 ft | 434 kts | 311° |
| 2026-05-08 06:40 | 25.06680 | 110.35802 | 32174 ft | 434 kts | 311° |
| 2026-05-08 06:40 | 25.11037 | 110.31208 | 32178 ft | 434 kts | 311° |
| 2026-05-08 06:41 | 25.15391 | 110.26614 | 32201 ft | 434 kts | 311° |
| 2026-05-08 06:41 | 25.19734 | 110.22017 | 32209 ft | 433 kts | 311° |
| 2026-05-08 06:42 | 25.24080 | 110.17428 | 32206 ft | 433 kts | 311° |
| 2026-05-08 06:42 | 25.28451 | 110.12859 | 32207 ft | 433 kts | 311° |
| 2026-05-08 06:43 | 25.32806 | 110.08310 | 32189 ft | 433 kts | 311° |
| 2026-05-08 06:43 | 25.37163 | 110.03749 | 32191 ft | 432 kts | 311° |
| 2026-05-08 06:44 | 25.41514 | 109.99173 | 32194 ft | 432 kts | 311° |
| 2026-05-08 06:44 | 25.45860 | 109.94597 | 32189 ft | 433 kts | 311° |
| 2026-05-08 06:45 | 25.50210 | 109.90026 | 32218 ft | 432 kts | 311° |
| 2026-05-08 06:45 | 25.54551 | 109.85455 | 32218 ft | 431 kts | 311° |
| 2026-05-08 06:46 | 25.58879 | 109.80888 | 32208 ft | 430 kts | 311° |
| 2026-05-08 06:46 | 25.63198 | 109.76322 | 32221 ft | 430 kts | 311° |
| 2026-05-08 06:47 | 25.67517 | 109.71745 | 32218 ft | 430 kts | 311° |
| 2026-05-08 06:47 | 25.71841 | 109.67170 | 32219 ft | 430 kts | 311° |
| 2026-05-08 06:48 | 25.76037 | 109.62485 | 32225 ft | 425 kts | 303° |
| 2026-05-08 06:48 | 25.78781 | 109.56817 | 32225 ft | 416 kts | 285° |
| 2026-05-08 06:49 | 25.80393 | 109.50666 | 32230 ft | 416 kts | 284° |
| 2026-05-08 06:49 | 25.82018 | 109.44516 | 32241 ft | 416 kts | 284° |
| 2026-05-08 06:50 | 25.83641 | 109.38369 | 32250 ft | 415 kts | 284° |
| 2026-05-08 06:50 | 25.85252 | 109.32234 | 32264 ft | 415 kts | 284° |
| 2026-05-08 06:51 | 25.86857 | 109.26106 | 32257 ft | 413 kts | 284° |
| 2026-05-08 06:51 | 25.88453 | 109.19999 | 32259 ft | 412 kts | 284° |
| 2026-05-08 06:52 | 25.90044 | 109.13892 | 32257 ft | 413 kts | 284° |
| 2026-05-08 06:52 | 25.91636 | 109.07783 | 32267 ft | 412 kts | 284° |
| 2026-05-08 06:53 | 25.93230 | 109.01686 | 32265 ft | 412 kts | 284° |
| 2026-05-08 06:53 | 25.94850 | 108.95602 | 32270 ft | 412 kts | 284° |
| 2026-05-08 06:54 | 25.96476 | 108.89517 | 32273 ft | 412 kts | 284° |
| 2026-05-08 06:54 | 25.98090 | 108.83427 | 32277 ft | 411 kts | 284° |
| 2026-05-08 06:55 | 25.99701 | 108.77345 | 32276 ft | 411 kts | 284° |
| 2026-05-08 06:55 | 26.01311 | 108.71251 | 32273 ft | 412 kts | 284° |
| 2026-05-08 06:56 | 26.02927 | 108.65158 | 32280 ft | 412 kts | 284° |
| 2026-05-08 06:56 | 26.04548 | 108.59065 | 32280 ft | 412 kts | 284° |
| 2026-05-08 06:57 | 26.06166 | 108.52969 | 32285 ft | 411 kts | 284° |
| 2026-05-08 06:57 | 26.07783 | 108.46877 | 32286 ft | 412 kts | 284° |
| 2026-05-08 06:58 | 26.09397 | 108.40779 | 32288 ft | 412 kts | 285° |
| 2026-05-08 06:58 | 26.11732 | 108.34946 | 32286 ft | 415 kts | 292° |
| 2026-05-08 06:59 | 26.14239 | 108.29172 | 32286 ft | 414 kts | 292° |
| 2026-05-08 06:59 | 26.16736 | 108.23407 | 32291 ft | 415 kts | 292° |
| 2026-05-08 07:00 | 26.19231 | 108.17637 | 32292 ft | 414 kts | 292° |
| 2026-05-08 07:00 | 26.21722 | 108.11862 | 32300 ft | 415 kts | 292° |
| 2026-05-08 07:01 | 26.24214 | 108.06075 | 32296 ft | 415 kts | 292° |
| 2026-05-08 07:01 | 26.26700 | 108.00299 | 32301 ft | 415 kts | 292° |
| 2026-05-08 07:02 | 26.29190 | 107.94513 | 32303 ft | 415 kts | 292° |
| 2026-05-08 07:02 | 26.31672 | 107.88720 | 32305 ft | 415 kts | 292° |
| 2026-05-08 07:03 | 26.34153 | 107.82921 | 32350 ft | 415 kts | 292° |
| 2026-05-08 07:03 | 26.36635 | 107.77125 | 32342 ft | 414 kts | 292° |
| 2026-05-08 07:04 | 26.39107 | 107.71345 | 32342 ft | 414 kts | 292° |
| 2026-05-08 07:04 | 26.41573 | 107.65559 | 32337 ft | 414 kts | 292° |
| 2026-05-08 07:05 | 26.44042 | 107.59774 | 32340 ft | 414 kts | 292° |
| 2026-05-08 07:05 | 26.46502 | 107.53990 | 32339 ft | 413 kts | 291° |
| 2026-05-08 07:06 | 26.48959 | 107.48194 | 32340 ft | 414 kts | 291° |
| 2026-05-08 07:06 | 26.51412 | 107.42401 | 32342 ft | 414 kts | 291° |
| 2026-05-08 07:07 | 26.53867 | 107.36601 | 32339 ft | 414 kts | 291° |
| 2026-05-08 07:07 | 26.56319 | 107.30803 | 32341 ft | 414 kts | 291° |
| 2026-05-08 07:08 | 26.58786 | 107.24995 | 32345 ft | 415 kts | 291° |
| 2026-05-08 07:08 | 26.61154 | 107.19406 | 32345 ft | 415 kts | 291° |
| 2026-05-08 07:09 | 26.63607 | 107.13593 | 32346 ft | 414 kts | 291° |
| 2026-05-08 07:09 | 26.66065 | 107.07786 | 32345 ft | 414 kts | 291° |
| 2026-05-08 07:10 | 26.68531 | 107.01983 | 32348 ft | 414 kts | 291° |
| 2026-05-08 07:10 | 26.70993 | 106.96176 | 32346 ft | 414 kts | 291° |
| 2026-05-08 07:11 | 26.73450 | 106.90369 | 32345 ft | 414 kts | 291° |
| 2026-05-08 07:11 | 26.75931 | 106.84573 | 32361 ft | 415 kts | 295° |
| 2026-05-08 07:12 | 26.77626 | 106.81933 | 32355 ft | 423 kts | 307° |
| 2026-05-08 07:12 | 26.79892 | 106.79789 | 32352 ft | 435 kts | 321° |
| 2026-05-08 07:12 | 26.82641 | 106.78306 | 32349 ft | 449 kts | 335° |
| 2026-05-08 07:12 | 26.85748 | 106.77637 | 32343 ft | 464 kts | 348° |
| 2026-05-08 07:13 | 26.92211 | 106.77286 | 32332 ft | 467 kts | 349° |
| 2026-05-08 07:13 | 26.98694 | 106.76976 | 32318 ft | 467 kts | 349° |
| 2026-05-08 07:14 | 27.05184 | 106.76656 | 32327 ft | 468 kts | 349° |
| 2026-05-08 07:14 | 27.11676 | 106.76315 | 32345 ft | 468 kts | 348° |
| 2026-05-08 07:15 | 27.18168 | 106.75973 | 32337 ft | 468 kts | 348° |
| 2026-05-08 07:15 | 27.24655 | 106.75635 | 32335 ft | 468 kts | 348° |
| 2026-05-08 07:16 | 27.31147 | 106.75302 | 32334 ft | 468 kts | 348° |
| 2026-05-08 07:16 | 27.37638 | 106.74977 | 32332 ft | 469 kts | 349° |
| 2026-05-08 07:17 | 27.44165 | 106.74882 | 32331 ft | 472 kts | 351° |
| 2026-05-08 07:17 | 27.50721 | 106.74970 | 32330 ft | 472 kts | 352° |
| 2026-05-08 07:18 | 27.57271 | 106.75038 | 32331 ft | 471 kts | 351° |
| 2026-05-08 07:18 | 27.63812 | 106.75047 | 32355 ft | 471 kts | 351° |
| 2026-05-08 07:19 | 27.70349 | 106.75027 | 32348 ft | 471 kts | 351° |
| 2026-05-08 07:19 | 27.76887 | 106.75017 | 32348 ft | 471 kts | 351° |
| 2026-05-08 07:20 | 27.83420 | 106.75023 | 32338 ft | 470 kts | 351° |
| 2026-05-08 07:20 | 27.89952 | 106.75034 | 32335 ft | 470 kts | 351° |
| 2026-05-08 07:21 | 27.96476 | 106.75040 | 32361 ft | 469 kts | 351° |
| 2026-05-08 07:21 | 28.02985 | 106.75042 | 32354 ft | 468 kts | 350° |
| 2026-05-08 07:22 | 28.09474 | 106.75046 | 32352 ft | 467 kts | 350° |
| 2026-05-08 07:22 | 28.15956 | 106.75053 | 32352 ft | 467 kts | 350° |
| 2026-05-08 07:23 | 28.22433 | 106.75062 | 32369 ft | 466 kts | 350° |
| 2026-05-08 07:23 | 28.28911 | 106.75077 | 32357 ft | 467 kts | 350° |
| 2026-05-08 07:24 | 28.35288 | 106.74606 | 32361 ft | 455 kts | 342° |
| 2026-05-08 07:24 | 28.41555 | 106.73667 | 32337 ft | 455 kts | 343° |
| 2026-05-08 07:25 | 28.47828 | 106.72744 | 32332 ft | 455 kts | 343° |
| 2026-05-08 07:26 | 28.57242 | 106.71356 | 32341 ft | 456 kts | 343° |
| 2026-05-08 07:26 | 28.63514 | 106.70423 | 32333 ft | 456 kts | 342° |
| 2026-05-08 07:27 | 28.69645 | 106.69534 | 32305 ft | 430 kts | 342° |
| 2026-05-08 07:27 | 28.75483 | 106.69528 | 32305 ft | 430 kts | 5° |
| 2026-05-08 07:27 | 28.78287 | 106.70871 | 32323 ft | 450 kts | 24° |
| 2026-05-08 07:28 | 28.80703 | 106.73221 | 32295 ft | 469 kts | 45° |
| 2026-05-08 07:28 | 28.82407 | 106.76439 | 32303 ft | 483 kts | 67° |
| 2026-05-08 07:28 | 28.83134 | 106.80176 | 32307 ft | 488 kts | 89° |
| 2026-05-08 07:28 | 28.82767 | 106.83990 | 32307 ft | 483 kts | 112° |
| 2026-05-08 07:29 | 28.81384 | 106.87403 | 32303 ft | 470 kts | 133° |
| 2026-05-08 07:29 | 28.79212 | 106.90065 | 32308 ft | 450 kts | 153° |
| 2026-05-08 07:29 | 28.76577 | 106.91787 | 32309 ft | 427 kts | 172° |
| 2026-05-08 07:29 | 28.73772 | 106.92629 | 32295 ft | 414 kts | 180° |
| 2026-05-08 07:30 | 28.70959 | 106.93170 | 32286 ft | 409 kts | 184° |
| 2026-05-08 07:30 | 28.65483 | 106.93879 | 32289 ft | 408 kts | 186° |
| 2026-05-08 07:31 | 28.59754 | 106.94128 | 32293 ft | 386 kts | 202° |
| 2026-05-08 07:31 | 28.57252 | 106.93311 | 32295 ft | 368 kts | 214° |
| 2026-05-08 07:31 | 28.55079 | 106.91904 | 32296 ft | 353 kts | 227° |
| 2026-05-08 07:31 | 28.53329 | 106.90035 | 32293 ft | 341 kts | 238° |
| 2026-05-08 07:32 | 28.52043 | 106.87826 | 32303 ft | 333 kts | 249° |
| 2026-05-08 07:32 | 28.50933 | 106.82842 | 32296 ft | 326 kts | 270° |
| 2026-05-08 07:33 | 28.51796 | 106.77803 | 32298 ft | 332 kts | 290° |
| 2026-05-08 07:33 | 28.52963 | 106.75509 | 32291 ft | 341 kts | 301° |
| 2026-05-08 07:33 | 28.54604 | 106.73527 | 32283 ft | 352 kts | 312° |
| 2026-05-08 07:33 | 28.56681 | 106.71982 | 32284 ft | 367 kts | 324° |
| 2026-05-08 07:34 | 28.59138 | 106.71008 | 32286 ft | 382 kts | 336° |
| 2026-05-08 07:34 | 28.64449 | 106.69983 | 32295 ft | 393 kts | 342° |
| 2026-05-08 07:35 | 28.69899 | 106.69345 | 32282 ft | 395 kts | 343° |
| 2026-05-08 07:35 | 28.75481 | 106.69628 | 32277 ft | 428 kts | 10° |
| 2026-05-08 07:35 | 28.78167 | 106.71240 | 32296 ft | 451 kts | 31° |
| 2026-05-08 07:36 | 28.80314 | 106.73919 | 32296 ft | 472 kts | 54° |
| 2026-05-08 07:36 | 28.81588 | 106.77403 | 32308 ft | 485 kts | 78° |
| 2026-05-08 07:36 | 28.81781 | 106.81233 | 32304 ft | 486 kts | 101° |
| 2026-05-08 07:36 | 28.80861 | 106.84877 | 32304 ft | 477 kts | 124° |
| 2026-05-08 07:37 | 28.78976 | 106.87867 | 32305 ft | 456 kts | 147° |
| 2026-05-08 07:37 | 28.76442 | 106.89812 | 32305 ft | 428 kts | 171° |
| 2026-05-08 07:37 | 28.73658 | 106.90595 | 32299 ft | 406 kts | 185° |
| 2026-05-08 07:38 | 28.68088 | 106.90818 | 32312 ft | 400 kts | 192° |
| 2026-05-08 07:38 | 28.62513 | 106.90990 | 32314 ft | 402 kts | 191° |
| 2026-05-08 07:38 | 28.59817 | 106.90696 | 32316 ft | 381 kts | 205° |
| 2026-05-08 07:39 | 28.57399 | 106.89667 | 32317 ft | 362 kts | 220° |
| 2026-05-08 07:39 | 28.55442 | 106.88005 | 32318 ft | 345 kts | 234° |
| 2026-05-08 07:39 | 28.54030 | 106.85877 | 32312 ft | 334 kts | 248° |
| 2026-05-08 07:39 | 28.53186 | 106.83469 | 32305 ft | 326 kts | 259° |
| 2026-05-08 07:40 | 28.52895 | 106.80936 | 32305 ft | 324 kts | 271° |
| 2026-05-08 07:40 | 28.53159 | 106.78401 | 32302 ft | 327 kts | 282° |
| 2026-05-08 07:40 | 28.53989 | 106.75980 | 32295 ft | 333 kts | 294° |
| 2026-05-08 07:40 | 28.55371 | 106.73832 | 32289 ft | 344 kts | 307° |
| 2026-05-08 07:41 | 28.57277 | 106.72109 | 32286 ft | 360 kts | 321° |
| 2026-05-08 07:41 | 28.59630 | 106.70993 | 32283 ft | 378 kts | 335° |
| 2026-05-08 07:41 | 28.62227 | 106.70379 | 32289 ft | 386 kts | 339° |
| 2026-05-08 07:42 | 28.67599 | 106.69594 | 32280 ft | 393 kts | 342° |
| 2026-05-08 07:42 | 28.73062 | 106.69110 | 32272 ft | 406 kts | 354° |
| 2026-05-08 07:42 | 28.75886 | 106.69808 | 32274 ft | 430 kts | 13° |
| 2026-05-08 07:43 | 28.78508 | 106.71598 | 32290 ft | 453 kts | 35° |
| 2026-05-08 07:43 | 28.80528 | 106.74435 | 32306 ft | 475 kts | 58° |
| 2026-05-08 07:43 | 28.81635 | 106.78008 | 32303 ft | 486 kts | 81° |
| 2026-05-08 07:43 | 28.81641 | 106.81835 | 32303 ft | 485 kts | 104° |
| 2026-05-08 07:44 | 28.80547 | 106.85406 | 32304 ft | 473 kts | 128° |
| 2026-05-08 07:44 | 28.78535 | 106.88238 | 32301 ft | 451 kts | 151° |
| 2026-05-08 07:44 | 28.75933 | 106.89980 | 32305 ft | 422 kts | 174° |
| 2026-05-08 07:44 | 28.73150 | 106.90606 | 32309 ft | 403 kts | 187° |
| 2026-05-08 07:45 | 28.70371 | 106.90721 | 32312 ft | 398 kts | 192° |
| 2026-05-08 07:45 | 28.64833 | 106.90708 | 32306 ft | 401 kts | 190° |
| 2026-05-08 07:46 | 28.59397 | 106.90366 | 32306 ft | 376 kts | 208° |
| 2026-05-08 07:46 | 28.57069 | 106.89218 | 32304 ft | 357 kts | 223° |
| 2026-05-08 07:46 | 28.55216 | 106.87462 | 32302 ft | 341 kts | 237° |
| 2026-05-08 07:46 | 28.53917 | 106.85274 | 32296 ft | 330 kts | 251° |
| 2026-05-08 07:47 | 28.53195 | 106.82852 | 32293 ft | 322 kts | 262° |
| 2026-05-08 07:47 | 28.53026 | 106.80325 | 32298 ft | 322 kts | 274° |
| 2026-05-08 07:47 | 28.53413 | 106.77817 | 32298 ft | 326 kts | 285° |
| 2026-05-08 07:47 | 28.54350 | 106.75461 | 32285 ft | 333 kts | 297° |
| 2026-05-08 07:48 | 28.55833 | 106.73391 | 32282 ft | 345 kts | 310° |
| 2026-05-08 07:48 | 28.57829 | 106.71786 | 32282 ft | 362 kts | 324° |
| 2026-05-08 07:48 | 28.60264 | 106.70846 | 32280 ft | 383 kts | 340° |
| 2026-05-08 07:49 | 28.65603 | 106.70096 | 32286 ft | 389 kts | 341° |
| 2026-05-08 07:49 | 28.70966 | 106.69325 | 32279 ft | 390 kts | 341° |
| 2026-05-08 07:49 | 28.73713 | 106.69209 | 32270 ft | 408 kts | 356° |
| 2026-05-08 07:50 | 28.76509 | 106.70113 | 32275 ft | 434 kts | 18° |
| 2026-05-08 07:50 | 28.79000 | 106.72184 | 32301 ft | 460 kts | 41° |
| 2026-05-08 07:50 | 28.80802 | 106.75262 | 32302 ft | 479 kts | 64° |
| 2026-05-08 07:50 | 28.81620 | 106.78960 | 32304 ft | 486 kts | 87° |
| 2026-05-08 07:51 | 28.81316 | 106.82768 | 32309 ft | 483 kts | 111° |
| 2026-05-08 07:51 | 28.79947 | 106.86178 | 32302 ft | 468 kts | 134° |
| 2026-05-08 07:51 | 28.77738 | 106.88736 | 32303 ft | 443 kts | 158° |
| 2026-05-08 07:51 | 28.75048 | 106.90138 | 32303 ft | 412 kts | 180° |
| 2026-05-08 07:52 | 28.72269 | 106.90524 | 32317 ft | 398 kts | 191° |
| 2026-05-08 07:52 | 28.66786 | 106.90356 | 32308 ft | 397 kts | 193° |
| 2026-05-08 07:53 | 28.61246 | 106.90312 | 32306 ft | 390 kts | 199° |
| 2026-05-08 07:53 | 28.58690 | 106.89629 | 32305 ft | 369 kts | 213° |
| 2026-05-08 07:53 | 28.56518 | 106.88266 | 32305 ft | 350 kts | 228° |
| 2026-05-08 07:53 | 28.54867 | 106.86341 | 32302 ft | 335 kts | 242° |
| 2026-05-08 07:54 | 28.53799 | 106.84049 | 32298 ft | 324 kts | 255° |
| 2026-05-08 07:54 | 28.53310 | 106.81582 | 32306 ft | 321 kts | 266° |
| 2026-05-08 07:54 | 28.53378 | 106.79058 | 32303 ft | 322 kts | 278° |
| 2026-05-08 07:54 | 28.54003 | 106.76605 | 32286 ft | 328 kts | 290° |
| 2026-05-08 07:55 | 28.55187 | 106.74365 | 32285 ft | 337 kts | 302° |
| 2026-05-08 07:55 | 28.56908 | 106.72497 | 32284 ft | 352 kts | 316° |
| 2026-05-08 07:55 | 28.59122 | 106.71189 | 32276 ft | 370 kts | 332° |
| 2026-05-08 07:55 | 28.61665 | 106.70498 | 32285 ft | 381 kts | 338° |
| 2026-05-08 07:56 | 28.64302 | 106.70022 | 32284 ft | 387 kts | 341° |
| 2026-05-08 07:56 | 28.69679 | 106.69352 | 32275 ft | 391 kts | 343° |
| 2026-05-08 07:57 | 28.75197 | 106.69544 | 32272 ft | 422 kts | 8° |
| 2026-05-08 07:57 | 28.77876 | 106.71079 | 32293 ft | 446 kts | 30° |
| 2026-05-08 07:57 | 28.80057 | 106.73691 | 32303 ft | 471 kts | 53° |
| 2026-05-08 07:57 | 28.81392 | 106.77139 | 32304 ft | 484 kts | 76° |
| 2026-05-08 07:58 | 28.81647 | 106.80957 | 32302 ft | 486 kts | 99° |
| 2026-05-08 07:58 | 28.80786 | 106.84624 | 32302 ft | 476 kts | 123° |
| 2026-05-08 07:58 | 28.78956 | 106.87643 | 32305 ft | 456 kts | 146° |
| 2026-05-08 07:58 | 28.76450 | 106.89643 | 32306 ft | 428 kts | 169° |
| 2026-05-08 07:59 | 28.73683 | 106.90461 | 32299 ft | 403 kts | 186° |
| 2026-05-08 07:59 | 28.68175 | 106.90515 | 32313 ft | 395 kts | 193° |
| 2026-05-08 08:00 | 28.62642 | 106.90539 | 32319 ft | 399 kts | 192° |
| 2026-05-08 08:00 | 28.59959 | 106.90233 | 32307 ft | 378 kts | 206° |
| 2026-05-08 08:00 | 28.57578 | 106.89226 | 32305 ft | 358 kts | 220° |
| 2026-05-08 08:00 | 28.55641 | 106.87584 | 32302 ft | 341 kts | 234° |
| 2026-05-08 08:01 | 28.54250 | 106.85480 | 32299 ft | 329 kts | 248° |
| 2026-05-08 08:01 | 28.53433 | 106.83106 | 32295 ft | 321 kts | 260° |
| 2026-05-08 08:01 | 28.53174 | 106.80605 | 32302 ft | 319 kts | 271° |
| 2026-05-08 08:01 | 28.53467 | 106.78107 | 32303 ft | 323 kts | 283° |
| 2026-05-08 08:02 | 28.54314 | 106.75729 | 32285 ft | 330 kts | 295° |
| 2026-05-08 08:02 | 28.55712 | 106.73622 | 32284 ft | 341 kts | 308° |
| 2026-05-08 08:02 | 28.57623 | 106.71951 | 32283 ft | 357 kts | 322° |
| 2026-05-08 08:02 | 28.59990 | 106.70908 | 32280 ft | 378 kts | 339° |
| 2026-05-08 08:03 | 28.62625 | 106.70489 | 32289 ft | 386 kts | 341° |
| 2026-05-08 08:03 | 28.67956 | 106.69738 | 32279 ft | 388 kts | 341° |
| 2026-05-08 08:04 | 28.73346 | 106.69176 | 32265 ft | 404 kts | 354° |
| 2026-05-08 08:04 | 28.76142 | 106.69954 | 32264 ft | 429 kts | 15° |
| 2026-05-08 08:04 | 28.78680 | 106.71889 | 32294 ft | 456 kts | 38° |
| 2026-05-08 08:04 | 28.80573 | 106.74860 | 32300 ft | 476 kts | 62° |
| 2026-05-08 08:05 | 28.81510 | 106.78499 | 32303 ft | 485 kts | 85° |
| 2026-05-08 08:05 | 28.81333 | 106.82316 | 32305 ft | 483 kts | 108° |
| 2026-05-08 08:05 | 28.80077 | 106.85786 | 32300 ft | 469 kts | 131° |
| 2026-05-08 08:05 | 28.77946 | 106.88451 | 32297 ft | 445 kts | 155° |
| 2026-05-08 08:06 | 28.75294 | 106.89981 | 32303 ft | 415 kts | 179° |
| 2026-05-08 08:06 | 28.72525 | 106.90426 | 32316 ft | 397 kts | 191° |
| 2026-05-08 08:06 | 28.69795 | 106.90366 | 32309 ft | 392 kts | 195° |
| 2026-05-08 08:07 | 28.64338 | 106.90051 | 32308 ft | 396 kts | 193° |
| 2026-05-08 08:07 | 28.59001 | 106.89482 | 32304 ft | 370 kts | 210° |
| 2026-05-08 08:07 | 28.56766 | 106.88248 | 32299 ft | 349 kts | 226° |
| 2026-05-08 08:08 | 28.55077 | 106.86392 | 32294 ft | 333 kts | 241° |
| 2026-05-08 08:08 | 28.53975 | 106.84139 | 32289 ft | 322 kts | 254° |
| 2026-05-08 08:08 | 28.53446 | 106.81694 | 32289 ft | 319 kts | 266° |
| 2026-05-08 08:08 | 28.53468 | 106.79185 | 32301 ft | 320 kts | 277° |
| 2026-05-08 08:09 | 28.54039 | 106.76731 | 32284 ft | 325 kts | 289° |
| 2026-05-08 08:09 | 28.55168 | 106.74484 | 32284 ft | 334 kts | 301° |
| 2026-05-08 08:09 | 28.56850 | 106.72596 | 32282 ft | 349 kts | 315° |
| 2026-05-08 08:09 | 28.59023 | 106.71252 | 32276 ft | 367 kts | 330° |
| 2026-05-08 08:10 | 28.61582 | 106.70640 | 32285 ft | 385 kts | 342° |
| 2026-05-08 08:10 | 28.66899 | 106.69908 | 32279 ft | 387 kts | 341° |
| 2026-05-08 08:11 | 28.72231 | 106.69171 | 32272 ft | 392 kts | 346° |
| 2026-05-08 08:11 | 28.75015 | 106.69494 | 32267 ft | 418 kts | 6° |
| 2026-05-08 08:11 | 28.77701 | 106.70957 | 32290 ft | 444 kts | 29° |
| 2026-05-08 08:11 | 28.79892 | 106.73552 | 32301 ft | 469 kts | 52° |
| 2026-05-08 08:12 | 28.81233 | 106.76977 | 32298 ft | 483 kts | 76° |
| 2026-05-08 08:12 | 28.81501 | 106.80784 | 32298 ft | 485 kts | 99° |
| 2026-05-08 08:12 | 28.80653 | 106.84445 | 32298 ft | 475 kts | 123° |
| 2026-05-08 08:12 | 28.78833 | 106.87465 | 32298 ft | 455 kts | 146° |
| 2026-05-08 08:13 | 28.76336 | 106.89468 | 32297 ft | 427 kts | 169° |
| 2026-05-08 08:13 | 28.73585 | 106.90281 | 32302 ft | 399 kts | 188° |
| 2026-05-08 08:13 | 28.70846 | 106.90347 | 32309 ft | 391 kts | 195° |
| 2026-05-08 08:14 | 28.65417 | 106.90012 | 32309 ft | 392 kts | 195° |
| 2026-05-08 08:14 | 28.60023 | 106.89644 | 32315 ft | 377 kts | 205° |
| 2026-05-08 08:14 | 28.57666 | 106.88717 | 32310 ft | 342 kts | 220° |
| 2026-05-08 08:15 | 28.55812 | 106.87165 | 32325 ft | 328 kts | 235° |
| 2026-05-08 08:15 | 28.54487 | 106.85106 | 32324 ft | 320 kts | 250° |
| 2026-05-08 08:15 | 28.53719 | 106.82759 | 32302 ft | 318 kts | 260° |
| 2026-05-08 08:15 | 28.53481 | 106.80260 | 32325 ft | 320 kts | 271° |
| 2026-05-08 08:16 | 28.53798 | 106.77754 | 32325 ft | 325 kts | 283° |
| 2026-05-08 08:16 | 28.54691 | 106.75376 | 32309 ft | 332 kts | 296° |
| 2026-05-08 08:16 | 28.56151 | 106.73297 | 32308 ft | 345 kts | 309° |
| 2026-05-08 08:16 | 28.58146 | 106.71693 | 32307 ft | 362 kts | 324° |
| 2026-05-08 08:17 | 28.60594 | 106.70776 | 32311 ft | 384 kts | 340° |
| 2026-05-08 08:17 | 28.65944 | 106.70008 | 32311 ft | 389 kts | 341° |
| 2026-05-08 08:18 | 28.71307 | 106.69262 | 32296 ft | 389 kts | 342° |
| 2026-05-08 08:18 | 28.74061 | 106.69257 | 32283 ft | 410 kts | 359° |
| 2026-05-08 08:18 | 28.76838 | 106.70321 | 32287 ft | 438 kts | 20° |
| 2026-05-08 08:18 | 28.79211 | 106.72546 | 32758 ft | 447 kts | 46° |
| 2026-05-08 08:19 | 28.80697 | 106.75567 | 33884 ft | 432 kts | 69° |
| 2026-05-08 08:19 | 28.81291 | 106.78880 | 34190 ft | 430 kts | 89° |
| 2026-05-08 08:19 | 28.81030 | 106.82286 | 33139 ft | 439 kts | 111° |
| 2026-05-08 08:19 | 28.79724 | 106.85438 | 31979 ft | 439 kts | 141° |
| 2026-05-08 08:20 | 28.77525 | 106.87520 | 32106 ft | 393 kts | 167° |
| 2026-05-08 08:20 | 28.75074 | 106.88529 | 32447 ft | 366 kts | 180° |
| 2026-05-08 08:20 | 28.72590 | 106.89120 | 32433 ft | 366 kts | 184° |
| 2026-05-08 08:21 | 28.67515 | 106.89854 | 32441 ft | 374 kts | 187° |
| 2026-05-08 08:21 | 28.62231 | 106.90399 | 32285 ft | 386 kts | 193° |
| 2026-05-08 08:21 | 28.59655 | 106.90005 | 32327 ft | 368 kts | 208° |
| 2026-05-08 08:22 | 28.57384 | 106.88876 | 32311 ft | 352 kts | 223° |
| 2026-05-08 08:22 | 28.55538 | 106.87133 | 32292 ft | 337 kts | 237° |
| 2026-05-08 08:22 | 28.54232 | 106.85000 | 31930 ft | 323 kts | 250° |
| 2026-05-08 08:22 | 28.53480 | 106.82644 | 31146 ft | 317 kts | 261° |
| 2026-05-08 08:23 | 28.53297 | 106.80128 | 29859 ft | 325 kts | 274° |
| 2026-05-08 08:23 | 28.53718 | 106.77583 | 28560 ft | 334 kts | 286° |
| 2026-05-08 08:23 | 28.54725 | 106.75187 | 27514 ft | 340 kts | 299° |
| 2026-05-08 08:23 | 28.56276 | 106.73133 | 26604 ft | 348 kts | 313° |
| 2026-05-08 08:24 | 28.58306 | 106.71603 | 25746 ft | 357 kts | 328° |
| 2026-05-08 08:24 | 28.60691 | 106.70712 | 24654 ft | 370 kts | 340° |
| 2026-05-08 08:24 | 28.63288 | 106.70137 | 23128 ft | 391 kts | 345° |
| 2026-05-08 08:24 | 28.66017 | 106.69722 | 21611 ft | 402 kts | 348° |
| 2026-05-08 08:25 | 28.68814 | 106.69397 | 20046 ft | 410 kts | 349° |
| 2026-05-08 08:25 | 28.71683 | 106.69195 | 18408 ft | 419 kts | 356° |
| 2026-05-08 08:25 | 28.74611 | 106.69366 | 16574 ft | 426 kts | 1° |
| 2026-05-08 08:25 | 28.77545 | 106.69771 | 15056 ft | 424 kts | 4° |
| 2026-05-08 08:26 | 28.80438 | 106.70305 | 13732 ft | 418 kts | 6° |
| 2026-05-08 08:26 | 28.83266 | 106.70864 | 12371 ft | 409 kts | 7° |
| 2026-05-08 08:26 | 28.86028 | 106.71389 | 11052 ft | 398 kts | 7° |
| 2026-05-08 08:26 | 28.88720 | 106.71859 | 10031 ft | 383 kts | 7° |
| 2026-05-08 08:27 | 28.91247 | 106.72266 | 9593 ft | 352 kts | 6° |
| 2026-05-08 08:27 | 28.93565 | 106.72618 | 9349 ft | 322 kts | 6° |
| 2026-05-08 08:27 | 28.95691 | 106.72935 | 9053 ft | 299 kts | 6° |